sensor_id;sensor_type;location;lat;lon;timestamp;pressure;altitude;pressure_sealevel;temperature;humidity
59829;BME280;45708;51.848;107.620;2023-08-07T00:00:52;93902.25;;;18.37;82.14
59829;BME280;45708;51.848;107.620;2023-08-07T00:05:53;93882.75;;;18.36;81.72
59829;BME280;45708;51.848;107.620;2023-08-07T00:11:07;93894.66;;;18.44;82.14
59829;BME280;45708;51.848;107.620;2023-08-07T00:16:08;93902.38;;;18.45;81.16
59829;BME280;45708;51.848;107.620;2023-08-07T00:21:09;93900.38;;;18.51;81.01
59829;BME280;45708;51.848;107.620;2023-08-07T00:26:09;93896.81;;;18.55;81.08
59829;BME280;45708;51.848;107.620;2023-08-07T00:31:10;93916.44;;;18.78;80.33
59829;BME280;45708;51.848;107.620;2023-08-07T00:36:11;93895.47;;;18.86;79.97
59829;BME280;45708;51.848;107.620;2023-08-07T00:41:12;93896.03;;;18.96;79.26
59829;BME280;45708;51.848;107.620;2023-08-07T00:46:13;93888.22;;;18.72;79.10
59829;BME280;45708;51.848;107.620;2023-08-07T00:51:14;93912.78;;;18.74;79.36
59829;BME280;45708;51.848;107.620;2023-08-07T00:56:16;93901.78;;;18.62;79.06
59829;BME280;45708;51.848;107.620;2023-08-07T01:01:17;93909.88;;;18.57;79.34
59829;BME280;45708;51.848;107.620;2023-08-07T01:06:18;93912.47;;;18.62;79.21
59829;BME280;45708;51.848;107.620;2023-08-07T01:12:41;93908.13;;;18.94;80.52
59829;BME280;45708;51.848;107.620;2023-08-07T01:17:20;93908.28;;;19.25;77.48
59829;BME280;45708;51.848;107.620;2023-08-07T01:22:22;93905.59;;;19.61;76.57
59829;BME280;45708;51.848;107.620;2023-08-07T01:27:36;93901.88;;;19.93;76.82
59829;BME280;45708;51.848;107.620;2023-08-07T01:32:58;93902.69;;;19.93;75.70
59829;BME280;45708;51.848;107.620;2023-08-07T01:38:00;93904.56;;;19.93;75.86
59829;BME280;45708;51.848;107.620;2023-08-07T01:43:02;93907.66;;;20.09;75.48
59829;BME280;45708;51.848;107.620;2023-08-07T01:48:03;93910.44;;;20.26;75.39
59829;BME280;45708;51.848;107.620;2023-08-07T01:53:04;93901.22;;;20.41;75.07
59829;BME280;45708;51.848;107.620;2023-08-07T01:58:05;93901.13;;;20.54;73.99
59829;BME280;45708;51.848;107.620;2023-08-07T02:03:06;93896.75;;;20.36;74.13
59829;BME280;45708;51.848;107.620;2023-08-07T02:08:07;93890.41;;;20.54;73.42
59829;BME280;45708;51.848;107.620;2023-08-07T02:13:08;93888.59;;;20.81;72.44
59829;BME280;45708;51.848;107.620;2023-08-07T02:18:08;93895.28;;;21.09;71.49
59829;BME280;45708;51.848;107.620;2023-08-07T02:23:09;93900.72;;;21.27;70.59
59829;BME280;45708;51.848;107.620;2023-08-07T02:28:10;93902.16;;;21.67;70.35
59829;BME280;45708;51.848;107.620;2023-08-07T02:33:11;93903.75;;;21.51;69.58
59829;BME280;45708;51.848;107.620;2023-08-07T02:38:12;93900.09;;;21.30;69.32
59829;BME280;45708;51.848;107.620;2023-08-07T02:43:12;93894.09;;;21.33;69.05
59829;BME280;45708;51.848;107.620;2023-08-07T02:48:13;93907.16;;;21.08;69.28
59829;BME280;45708;51.848;107.620;2023-08-07T02:53:14;93898.88;;;20.87;70.00
59829;BME280;45708;51.848;107.620;2023-08-07T02:58:15;93907.91;;;21.00;69.67
59829;BME280;45708;51.848;107.620;2023-08-07T03:03:15;93905.69;;;21.02;69.85
59829;BME280;45708;51.848;107.620;2023-08-07T03:08:17;93908.09;;;21.04;69.60
59829;BME280;45708;51.848;107.620;2023-08-07T03:13:18;93915.50;;;21.07;70.05
59829;BME280;45708;51.848;107.620;2023-08-07T03:18:18;93903.41;;;21.35;68.80
59829;BME280;45708;51.848;107.620;2023-08-07T03:23:19;93890.00;;;21.44;68.39
59829;BME280;45708;51.848;107.620;2023-08-07T03:28:20;93898.38;;;21.51;68.52
59829;BME280;45708;51.848;107.620;2023-08-07T03:33:21;93898.06;;;21.70;67.43
59829;BME280;45708;51.848;107.620;2023-08-07T03:38:22;93883.47;;;22.14;66.86
59829;BME280;45708;51.848;107.620;2023-08-07T03:43:23;93874.75;;;22.17;66.38
59829;BME280;45708;51.848;107.620;2023-08-07T03:48:24;93886.66;;;22.07;66.65
59829;BME280;45708;51.848;107.620;2023-08-07T03:53:24;93881.72;;;22.01;66.69
59829;BME280;45708;51.848;107.620;2023-08-07T03:58:25;93890.44;;;21.89;67.11
59829;BME280;45708;51.848;107.620;2023-08-07T04:03:26;93844.91;;;21.75;66.78
59829;BME280;45708;51.848;107.620;2023-08-07T04:08:27;93884.00;;;21.64;66.76
59829;BME280;45708;51.848;107.620;2023-08-07T04:13:28;93884.28;;;21.71;67.41
59829;BME280;45708;51.848;107.620;2023-08-07T04:18:29;93894.34;;;22.26;66.33
59829;BME280;45708;51.848;107.620;2023-08-07T04:23:30;93880.31;;;22.12;65.63
59829;BME280;45708;51.848;107.620;2023-08-07T04:28:30;93887.44;;;21.39;67.29
59829;BME280;45708;51.848;107.620;2023-08-07T04:33:31;93879.47;;;20.99;67.80
59829;BME280;45708;51.848;107.620;2023-08-07T04:38:32;93874.75;;;21.13;67.68
59829;BME280;45708;51.848;107.620;2023-08-07T04:43:33;93876.03;;;21.07;67.26
59829;BME280;45708;51.848;107.620;2023-08-07T04:48:34;93876.41;;;21.32;66.84
59829;BME280;45708;51.848;107.620;2023-08-07T04:53:35;93882.25;;;21.51;66.32
59829;BME280;45708;51.848;107.620;2023-08-07T04:58:35;93874.97;;;21.69;65.78
59829;BME280;45708;51.848;107.620;2023-08-07T05:03:36;93880.31;;;22.03;65.81
59829;BME280;45708;51.848;107.620;2023-08-07T05:08:38;93884.28;;;22.53;63.75
59829;BME280;45708;51.848;107.620;2023-08-07T05:13:39;93881.47;;;22.40;64.48
59829;BME280;45708;51.848;107.620;2023-08-07T05:18:40;93877.56;;;22.29;64.71
59829;BME280;45708;51.848;107.620;2023-08-07T05:23:40;93889.00;;;21.92;64.79
59829;BME280;45708;51.848;107.620;2023-08-07T05:28:41;93889.81;;;21.92;65.28
59829;BME280;45708;51.848;107.620;2023-08-07T05:33:42;93865.00;;;21.69;65.18
59829;BME280;45708;51.848;107.620;2023-08-07T05:38:43;93885.56;;;21.48;65.43
59829;BME280;45708;51.848;107.620;2023-08-07T05:43:45;93898.84;;;21.53;65.38
59829;BME280;45708;51.848;107.620;2023-08-07T05:48:45;93877.97;;;21.33;65.37
59829;BME280;45708;51.848;107.620;2023-08-07T05:53:46;93886.81;;;21.42;65.47
59829;BME280;45708;51.848;107.620;2023-08-07T05:58:47;93886.50;;;21.69;64.80
59829;BME280;45708;51.848;107.620;2023-08-07T06:03:48;93881.59;;;21.71;65.09
59829;BME280;45708;51.848;107.620;2023-08-07T06:08:49;93867.34;;;22.05;64.25
59829;BME280;45708;51.848;107.620;2023-08-07T06:13:49;93876.84;;;21.85;64.53
59829;BME280;45708;51.848;107.620;2023-08-07T06:18:50;93872.91;;;21.74;64.70
59829;BME280;45708;51.848;107.620;2023-08-07T06:23:51;93881.44;;;21.59;65.16
59829;BME280;45708;51.848;107.620;2023-08-07T06:28:52;93901.19;;;21.37;65.22
59829;BME280;45708;51.848;107.620;2023-08-07T06:33:53;93887.16;;;21.66;65.09
59829;BME280;45708;51.848;107.620;2023-08-07T06:38:54;93887.28;;;22.04;64.42
59829;BME280;45708;51.848;107.620;2023-08-07T06:43:54;93876.47;;;22.22;63.65
59829;BME280;45708;51.848;107.620;2023-08-07T06:48:55;93886.66;;;22.54;62.90
59829;BME280;45708;51.848;107.620;2023-08-07T06:53:56;93886.38;;;22.38;62.68
59829;BME280;45708;51.848;107.620;2023-08-07T06:58:58;93884.44;;;22.09;63.38
59829;BME280;45708;51.848;107.620;2023-08-07T07:03:58;93871.88;;;22.22;62.95
59829;BME280;45708;51.848;107.620;2023-08-07T07:08:59;93871.16;;;22.04;63.52
59829;BME280;45708;51.848;107.620;2023-08-07T07:14:00;93867.50;;;21.92;63.53
59829;BME280;45708;51.848;107.620;2023-08-07T07:19:01;93853.72;;;22.02;63.41
59829;BME280;45708;51.848;107.620;2023-08-07T07:24:02;93859.91;;;22.11;63.02
59829;BME280;45708;51.848;107.620;2023-08-07T07:29:03;93868.09;;;22.23;63.28
59829;BME280;45708;51.848;107.620;2023-08-07T07:34:04;93863.78;;;22.31;63.00
59829;BME280;45708;51.848;107.620;2023-08-07T07:39:05;93861.72;;;22.36;62.89
59829;BME280;45708;51.848;107.620;2023-08-07T07:44:05;93870.31;;;22.21;62.55
59829;BME280;45708;51.848;107.620;2023-08-07T07:49:06;93855.94;;;22.00;63.01
59829;BME280;45708;51.848;107.620;2023-08-07T07:54:07;93861.31;;;22.00;63.43
59829;BME280;45708;51.848;107.620;2023-08-07T07:59:08;93867.41;;;22.35;62.63
59829;BME280;45708;51.848;107.620;2023-08-07T08:04:09;93870.16;;;22.17;63.13
59829;BME280;45708;51.848;107.620;2023-08-07T08:09:09;93868.75;;;22.03;63.27
59829;BME280;45708;51.848;107.620;2023-08-07T08:14:10;93876.53;;;22.04;63.35
59829;BME280;45708;51.848;107.620;2023-08-07T08:19:11;93866.06;;;21.94;63.65
59829;BME280;45708;51.848;107.620;2023-08-07T08:24:12;93862.75;;;21.97;63.21
59829;BME280;45708;51.848;107.620;2023-08-07T08:29:14;93871.31;;;21.73;62.93
59829;BME280;45708;51.848;107.620;2023-08-07T08:34:15;93874.81;;;21.65;62.96
59829;BME280;45708;51.848;107.620;2023-08-07T08:39:16;93887.91;;;21.75;63.00
59829;BME280;45708;51.848;107.620;2023-08-07T08:44:17;93881.44;;;21.76;63.20
59829;BME280;45708;51.848;107.620;2023-08-07T08:49:29;93868.31;;;21.75;62.87
59829;BME280;45708;51.848;107.620;2023-08-07T08:54:31;93874.19;;;21.68;63.20
59829;BME280;45708;51.848;107.620;2023-08-07T08:59:33;93869.44;;;21.74;63.18
59829;BME280;45708;51.848;107.620;2023-08-07T09:04:33;93864.38;;;21.64;62.80
59829;BME280;45708;51.848;107.620;2023-08-07T09:09:34;93878.63;;;21.64;63.07
59829;BME280;45708;51.848;107.620;2023-08-07T09:14:37;93886.19;;;21.62;62.37
59829;BME280;45708;51.848;107.620;2023-08-07T09:19:40;93880.00;;;21.62;63.03
59829;BME280;45708;51.848;107.620;2023-08-07T09:24:41;93877.66;;;21.60;62.59
59829;BME280;45708;51.848;107.620;2023-08-07T09:29:43;93880.34;;;21.34;63.17
59829;BME280;45708;51.848;107.620;2023-08-07T09:34:44;93877.03;;;21.29;63.54
59829;BME280;45708;51.848;107.620;2023-08-07T09:39:46;93877.28;;;21.18;63.96
59829;BME280;45708;51.848;107.620;2023-08-07T09:44:47;93885.88;;;21.29;64.00
59829;BME280;45708;51.848;107.620;2023-08-07T09:49:48;93893.16;;;21.29;64.11
59829;BME280;45708;51.848;107.620;2023-08-07T09:54:48;93901.03;;;21.34;64.24
59829;BME280;45708;51.848;107.620;2023-08-07T09:59:49;93899.00;;;21.56;63.64
59829;BME280;45708;51.848;107.620;2023-08-07T10:04:51;93906.13;;;21.44;63.82
59829;BME280;45708;51.848;107.620;2023-08-07T10:09:54;93905.00;;;21.36;63.67
59829;BME280;45708;51.848;107.620;2023-08-07T10:14:55;93895.28;;;21.09;63.94
59829;BME280;45708;51.848;107.620;2023-08-07T10:19:56;93889.25;;;20.95;64.16
59829;BME280;45708;51.848;107.620;2023-08-07T10:25:01;93905.22;;;21.00;64.34
59829;BME280;45708;51.848;107.620;2023-08-07T10:30:05;93905.03;;;20.88;64.36
59829;BME280;45708;51.848;107.620;2023-08-07T10:35:06;93903.94;;;20.89;64.61
59829;BME280;45708;51.848;107.620;2023-08-07T10:40:12;93855.03;;;20.52;64.70
59829;BME280;45708;51.848;107.620;2023-08-07T10:45:15;93904.22;;;20.79;64.91
59829;BME280;45708;51.848;107.620;2023-08-07T10:50:17;93915.25;;;20.77;65.26
59829;BME280;45708;51.848;107.620;2023-08-07T10:55:17;93919.84;;;20.77;65.23
59829;BME280;45708;51.848;107.620;2023-08-07T11:00:25;93919.41;;;20.83;65.27
59829;BME280;45708;51.848;107.620;2023-08-07T11:05:26;93927.75;;;20.82;65.04
59829;BME280;45708;51.848;107.620;2023-08-07T11:10:27;93909.56;;;20.79;64.89
59829;BME280;45708;51.848;107.620;2023-08-07T11:15:28;93911.13;;;20.71;65.32
59829;BME280;45708;51.848;107.620;2023-08-07T11:20:28;93936.50;;;20.56;65.69
59829;BME280;45708;51.848;107.620;2023-08-07T11:25:29;93934.56;;;20.48;65.94
59829;BME280;45708;51.848;107.620;2023-08-07T11:30:31;93924.25;;;20.42;66.29
59829;BME280;45708;51.848;107.620;2023-08-07T11:35:31;93929.31;;;20.21;66.62
59829;BME280;45708;51.848;107.620;2023-08-07T11:40:32;93939.69;;;20.14;66.87
59829;BME280;45708;51.848;107.620;2023-08-07T11:45:33;93931.25;;;19.98;67.30
59829;BME280;45708;51.848;107.620;2023-08-07T11:50:35;93928.63;;;19.84;67.50
59829;BME280;45708;51.848;107.620;2023-08-07T11:55:36;93940.69;;;19.73;67.71
59829;BME280;45708;51.848;107.620;2023-08-07T12:00:36;93951.66;;;19.63;67.80
59829;BME280;45708;51.848;107.620;2023-08-07T12:05:40;93940.31;;;19.52;68.04
59829;BME280;45708;51.848;107.620;2023-08-07T12:10:41;93946.41;;;19.44;68.38
59829;BME280;45708;51.848;107.620;2023-08-07T12:15:42;93939.88;;;19.36;68.39
59829;BME280;45708;51.848;107.620;2023-08-07T12:20:43;93921.72;;;19.33;68.56
59829;BME280;45708;51.848;107.620;2023-08-07T12:25:46;93921.75;;;19.20;68.43
59829;BME280;45708;51.848;107.620;2023-08-07T12:30:48;93923.16;;;19.17;68.42
59829;BME280;45708;51.848;107.620;2023-08-07T12:35:52;93944.06;;;19.15;68.13
59829;BME280;45708;51.848;107.620;2023-08-07T12:40:53;93946.25;;;19.13;68.29
59829;BME280;45708;51.848;107.620;2023-08-07T12:45:54;93961.63;;;19.07;68.63
59829;BME280;45708;51.848;107.620;2023-08-07T12:50:55;93959.88;;;19.03;68.46
59829;BME280;45708;51.848;107.620;2023-08-07T12:55:57;93967.97;;;18.98;68.49
59829;BME280;45708;51.848;107.620;2023-08-07T13:00:58;93940.34;;;18.89;68.35
59829;BME280;45708;51.848;107.620;2023-08-07T13:05:58;93951.53;;;18.91;68.31
59829;BME280;45708;51.848;107.620;2023-08-07T13:10:59;93956.50;;;18.83;68.51
59829;BME280;45708;51.848;107.620;2023-08-07T13:16:00;93975.13;;;18.89;68.52
59829;BME280;45708;51.848;107.620;2023-08-07T13:21:01;93973.84;;;18.86;68.56
59829;BME280;45708;51.848;107.620;2023-08-07T13:26:02;93958.47;;;18.78;68.76
59829;BME280;45708;51.848;107.620;2023-08-07T13:31:03;93973.13;;;18.80;68.71
59829;BME280;45708;51.848;107.620;2023-08-07T13:36:04;93978.88;;;18.74;68.63
59829;BME280;45708;51.848;107.620;2023-08-07T13:41:05;93996.31;;;18.71;68.65
59829;BME280;45708;51.848;107.620;2023-08-07T13:46:06;94004.34;;;18.71;68.58
59829;BME280;45708;51.848;107.620;2023-08-07T13:51:06;93985.56;;;18.44;68.66
59829;BME280;45708;51.848;107.620;2023-08-07T13:56:07;94007.16;;;18.61;68.67
59829;BME280;45708;51.848;107.620;2023-08-07T14:01:08;93972.44;;;18.29;69.02
59829;BME280;45708;51.848;107.620;2023-08-07T14:06:09;94021.91;;;18.45;69.21
59829;BME280;45708;51.848;107.620;2023-08-07T14:11:10;93986.16;;;18.08;69.60
59829;BME280;45708;51.848;107.620;2023-08-07T14:16:10;94033.06;;;18.33;69.60
59829;BME280;45708;51.848;107.620;2023-08-07T14:21:11;94039.00;;;18.30;69.79
59829;BME280;45708;51.848;107.620;2023-08-07T14:26:13;94030.91;;;18.16;69.89
59829;BME280;45708;51.848;107.620;2023-08-07T14:31:14;94033.00;;;18.19;69.83
59829;BME280;45708;51.848;107.620;2023-08-07T14:36:15;94044.88;;;18.13;70.26
59829;BME280;45708;51.848;107.620;2023-08-07T14:41:16;94043.88;;;18.09;70.27
59829;BME280;45708;51.848;107.620;2023-08-07T14:46:17;94037.81;;;18.04;70.35
59829;BME280;45708;51.848;107.620;2023-08-07T14:51:18;94044.94;;;18.08;70.05
59829;BME280;45708;51.848;107.620;2023-08-07T14:56:19;94040.09;;;18.10;70.22
59829;BME280;45708;51.848;107.620;2023-08-07T15:01:20;94043.38;;;18.07;69.93
59829;BME280;45708;51.848;107.620;2023-08-07T15:06:20;94043.28;;;18.12;69.63
59829;BME280;45708;51.848;107.620;2023-08-07T15:11:24;94045.88;;;18.17;69.47
59829;BME280;45708;51.848;107.620;2023-08-07T15:16:25;94030.41;;;18.14;69.25
59829;BME280;45708;51.848;107.620;2023-08-07T15:21:26;94038.78;;;18.27;68.89
59829;BME280;45708;51.848;107.620;2023-08-07T15:26:27;94049.47;;;18.27;68.84
59829;BME280;45708;51.848;107.620;2023-08-07T15:31:27;94023.28;;;18.10;68.61
59829;BME280;45708;51.848;107.620;2023-08-07T15:36:28;94040.53;;;18.17;68.47
59829;BME280;45708;51.848;107.620;2023-08-07T15:41:29;94050.63;;;18.20;68.68
59829;BME280;45708;51.848;107.620;2023-08-07T15:46:30;94061.25;;;18.26;68.04
59829;BME280;45708;51.848;107.620;2023-08-07T15:51:31;94049.53;;;18.21;68.27
59829;BME280;45708;51.848;107.620;2023-08-07T15:56:31;94051.22;;;18.17;68.22
59829;BME280;45708;51.848;107.620;2023-08-07T16:01:32;94040.97;;;18.06;68.22
59829;BME280;45708;51.848;107.620;2023-08-07T16:06:34;94061.41;;;18.15;68.34
59829;BME280;45708;51.848;107.620;2023-08-07T16:11:35;94073.69;;;18.16;68.40
59829;BME280;45708;51.848;107.620;2023-08-07T16:16:36;94083.50;;;18.21;67.77
59829;BME280;45708;51.848;107.620;2023-08-07T16:21:37;94070.59;;;18.09;67.93
59829;BME280;45708;51.848;107.620;2023-08-07T16:26:37;94071.59;;;18.13;67.48
59829;BME280;45708;51.848;107.620;2023-08-07T16:31:38;94065.09;;;18.01;67.56
59829;BME280;45708;51.848;107.620;2023-08-07T16:36:39;94081.78;;;18.11;67.42
59829;BME280;45708;51.848;107.620;2023-08-07T16:41:41;94074.69;;;18.02;67.21
59829;BME280;45708;51.848;107.620;2023-08-07T16:46:42;94080.28;;;18.05;67.32
59829;BME280;45708;51.848;107.620;2023-08-07T16:51:45;94081.91;;;18.01;67.25
59829;BME280;45708;51.848;107.620;2023-08-07T16:56:45;94085.16;;;17.98;66.87
59829;BME280;45708;51.848;107.620;2023-08-07T17:01:46;94079.03;;;17.98;66.86
59829;BME280;45708;51.848;107.620;2023-08-07T17:06:47;94076.16;;;17.94;66.53
59829;BME280;45708;51.848;107.620;2023-08-07T17:11:48;94096.22;;;17.91;66.58
59829;BME280;45708;51.848;107.620;2023-08-07T17:16:49;94093.63;;;17.86;66.67
59829;BME280;45708;51.848;107.620;2023-08-07T17:21:49;94090.22;;;17.81;67.00
59829;BME280;45708;51.848;107.620;2023-08-07T17:26:50;94093.97;;;17.80;67.11
59829;BME280;45708;51.848;107.620;2023-08-07T17:31:51;94089.88;;;17.69;67.10
59829;BME280;45708;51.848;107.620;2023-08-07T17:36:52;94086.16;;;17.64;67.45
59829;BME280;45708;51.848;107.620;2023-08-07T17:41:53;94103.75;;;17.66;67.50
59829;BME280;45708;51.848;107.620;2023-08-07T17:46:53;94097.22;;;17.53;68.06
59829;BME280;45708;51.848;107.620;2023-08-07T17:51:54;94099.00;;;17.39;68.51
59829;BME280;45708;51.848;107.620;2023-08-07T17:56:55;94088.47;;;17.28;68.30
59829;BME280;45708;51.848;107.620;2023-08-07T18:01:56;94093.56;;;17.25;68.48
59829;BME280;45708;51.848;107.620;2023-08-07T18:06:57;94106.41;;;17.23;68.58
59829;BME280;45708;51.848;107.620;2023-08-07T18:11:57;94065.28;;;17.00;68.65
59829;BME280;45708;51.848;107.620;2023-08-07T18:16:58;94098.41;;;17.23;68.52
59829;BME280;45708;51.848;107.620;2023-08-07T18:21:59;94098.00;;;17.11;68.61
59829;BME280;45708;51.848;107.620;2023-08-07T18:27:00;94093.66;;;17.15;68.93
59829;BME280;45708;51.848;107.620;2023-08-07T18:32:01;94094.81;;;17.09;68.84
59829;BME280;45708;51.848;107.620;2023-08-07T18:37:02;94102.88;;;17.03;69.65
59829;BME280;45708;51.848;107.620;2023-08-07T18:42:03;94108.53;;;16.97;69.44
59829;BME280;45708;51.848;107.620;2023-08-07T18:47:04;94109.88;;;16.94;69.27
59829;BME280;45708;51.848;107.620;2023-08-07T18:52:05;94102.69;;;16.95;69.34
59829;BME280;45708;51.848;107.620;2023-08-07T18:57:06;94109.88;;;16.94;69.39
59829;BME280;45708;51.848;107.620;2023-08-07T19:02:06;94083.34;;;16.84;69.29
59829;BME280;45708;51.848;107.620;2023-08-07T19:07:09;94093.44;;;16.87;69.09
59829;BME280;45708;51.848;107.620;2023-08-07T19:12:10;94114.72;;;16.92;68.60
59829;BME280;45708;51.848;107.620;2023-08-07T19:17:10;94098.19;;;16.90;68.92
59829;BME280;45708;51.848;107.620;2023-08-07T19:22:11;94109.44;;;16.87;68.99
59829;BME280;45708;51.848;107.620;2023-08-07T19:27:12;94106.81;;;16.82;68.79
59829;BME280;45708;51.848;107.620;2023-08-07T19:32:14;94103.94;;;16.73;68.81
59829;BME280;45708;51.848;107.620;2023-08-07T19:37:14;94111.91;;;16.79;68.68
59829;BME280;45708;51.848;107.620;2023-08-07T19:42:15;94111.44;;;16.71;68.75
59829;BME280;45708;51.848;107.620;2023-08-07T19:47:16;94127.63;;;16.80;68.50
59829;BME280;45708;51.848;107.620;2023-08-07T19:52:17;94121.78;;;16.78;68.18
59829;BME280;45708;51.848;107.620;2023-08-07T19:57:17;94104.28;;;16.67;68.40
59829;BME280;45708;51.848;107.620;2023-08-07T20:02:18;94132.53;;;16.68;68.27
59829;BME280;45708;51.848;107.620;2023-08-07T20:07:19;94135.81;;;16.55;68.61
59829;BME280;45708;51.848;107.620;2023-08-07T20:12:20;94116.75;;;16.37;68.86
59829;BME280;45708;51.848;107.620;2023-08-07T20:17:20;94142.09;;;16.35;69.36
59829;BME280;45708;51.848;107.620;2023-08-07T20:22:21;94139.25;;;16.21;69.24
59829;BME280;45708;51.848;107.620;2023-08-07T20:27:22;94092.53;;;15.95;69.29
59829;BME280;45708;51.848;107.620;2023-08-07T20:32:23;94151.25;;;16.19;69.55
59829;BME280;45708;51.848;107.620;2023-08-07T20:37:23;94144.13;;;16.09;69.87
59829;BME280;45708;51.848;107.620;2023-08-07T20:42:24;94140.44;;;16.05;70.15
59829;BME280;45708;51.848;107.620;2023-08-07T20:47:25;94146.56;;;16.00;70.19
59829;BME280;45708;51.848;107.620;2023-08-07T20:52:26;94152.22;;;15.94;70.51
59829;BME280;45708;51.848;107.620;2023-08-07T20:57:27;94155.72;;;15.84;70.88
59829;BME280;45708;51.848;107.620;2023-08-07T21:02:27;94169.84;;;15.85;70.70
59829;BME280;45708;51.848;107.620;2023-08-07T21:07:28;94155.00;;;15.68;71.29
59829;BME280;45708;51.848;107.620;2023-08-07T21:12:30;94170.38;;;15.76;70.83
59829;BME280;45708;51.848;107.620;2023-08-07T21:17:31;94173.03;;;15.81;70.75
59829;BME280;45708;51.848;107.620;2023-08-07T21:22:32;94172.50;;;15.85;71.11
59829;BME280;45708;51.848;107.620;2023-08-07T21:27:33;94182.88;;;15.81;71.13
59829;BME280;45708;51.848;107.620;2023-08-07T21:32:33;94173.56;;;15.78;71.14
59829;BME280;45708;51.848;107.620;2023-08-07T21:37:34;94176.03;;;15.70;71.25
59829;BME280;45708;51.848;107.620;2023-08-07T21:42:35;94187.47;;;15.70;71.52
59829;BME280;45708;51.848;107.620;2023-08-07T21:47:36;94179.50;;;15.65;71.33
59829;BME280;45708;51.848;107.620;2023-08-07T21:52:37;94196.78;;;15.73;71.46
59829;BME280;45708;51.848;107.620;2023-08-07T21:57:38;94201.31;;;15.72;71.34
59829;BME280;45708;51.848;107.620;2023-08-07T22:02:41;94212.44;;;15.79;71.29
59829;BME280;45708;51.848;107.620;2023-08-07T22:07:42;94209.25;;;15.77;71.39
59829;BME280;45708;51.848;107.620;2023-08-07T22:12:43;94201.31;;;15.67;71.25
59829;BME280;45708;51.848;107.620;2023-08-07T22:17:43;94206.66;;;15.67;71.49
59829;BME280;45708;51.848;107.620;2023-08-07T22:22:44;94200.81;;;15.65;71.57
59829;BME280;45708;51.848;107.620;2023-08-07T22:27:45;94189.09;;;15.61;71.71
59829;BME280;45708;51.848;107.620;2023-08-07T22:32:46;94195.47;;;15.65;71.52
59829;BME280;45708;51.848;107.620;2023-08-07T22:37:47;94195.44;;;15.75;71.55
59829;BME280;45708;51.848;107.620;2023-08-07T22:42:48;94181.78;;;16.36;70.60
59829;BME280;45708;51.848;107.620;2023-08-07T22:47:48;94199.22;;;17.02;69.20
59829;BME280;45708;51.848;107.620;2023-08-07T22:52:49;94197.16;;;17.23;68.36
59829;BME280;45708;51.848;107.620;2023-08-07T22:57:50;94203.53;;;17.51;67.77
59829;BME280;45708;51.848;107.620;2023-08-07T23:02:54;94213.41;;;18.22;66.54
59829;BME280;45708;51.848;107.620;2023-08-07T23:07:55;94208.81;;;18.46;64.17
59829;BME280;45708;51.848;107.620;2023-08-07T23:12:55;94190.50;;;18.35;64.37
59829;BME280;45708;51.848;107.620;2023-08-07T23:17:56;94200.63;;;18.38;64.31
59829;BME280;45708;51.848;107.620;2023-08-07T23:22:57;94200.84;;;18.41;63.87
59829;BME280;45708;51.848;107.620;2023-08-07T23:27:58;94199.28;;;17.98;64.42
59829;BME280;45708;51.848;107.620;2023-08-07T23:32:59;94202.31;;;17.91;64.58
59829;BME280;45708;51.848;107.620;2023-08-07T23:37:59;94218.09;;;18.11;64.17
59829;BME280;45708;51.848;107.620;2023-08-07T23:43:00;94221.72;;;18.58;62.80
59829;BME280;45708;51.848;107.620;2023-08-07T23:48:01;94223.31;;;18.97;62.02
59829;BME280;45708;51.848;107.620;2023-08-07T23:53:02;94228.94;;;19.14;61.16
59829;BME280;45708;51.848;107.620;2023-08-07T23:58:03;94246.41;;;21.04;58.19
